Heath, Kentucky
Current Conditions -  °F | °C
As of 6:53 PM on Friday 28 Nov 2014 (Local Time) from KPAH Reporting Station
Clear Clear  
Wind Chill: 40°   Ceiling: Unl
Heat Index: 43°   Visibility: 10mi
Dew Point: 26°   Wind: 5mph
Humidity: 51%   Direction: 170°S
Pressure: 30.07"   Gusts: NA
Location:  37.0919°N, 88.7716°W
Report Text: KPAH 290053Z 17004KT 10SM CLR 06/M03 A3007 RMK AO2 SLP185 T00611033
Loading
Personal Weather Stations






























Interactive Weather Map New forecast layout! Learn more

10-Day Weather Forecast

Advertisements
Track Severe Weather on mobile